sensor_id;sensor_type;location;lat;lon;timestamp;temperature;humidity
36800;DHT22;22752;51.960;5.886;2024-01-25T00:01:25;7.80;99.90
36800;DHT22;22752;51.960;5.886;2024-01-25T00:03:51;7.70;99.90
36800;DHT22;22752;51.960;5.886;2024-01-25T00:06:18;7.60;99.90
36800;DHT22;22752;51.960;5.886;2024-01-25T00:08:43;7.50;99.90
36800;DHT22;22752;51.960;5.886;2024-01-25T00:11:09;7.40;99.90
36800;DHT22;22752;51.960;5.886;2024-01-25T00:13:35;7.30;99.90
36800;DHT22;22752;51.960;5.886;2024-01-25T00:16:03;7.20;99.90
36800;DHT22;22752;51.960;5.886;2024-01-25T00:18:29;7.10;99.90
36800;DHT22;22752;51.960;5.886;2024-01-25T00:20:55;7.00;99.90
36800;DHT22;22752;51.960;5.886;2024-01-25T00:23:21;7.00;99.90
36800;DHT22;22752;51.960;5.886;2024-01-25T00:25:46;6.80;99.90
36800;DHT22;22752;51.960;5.886;2024-01-25T00:28:12;6.80;99.90
36800;DHT22;22752;51.960;5.886;2024-01-25T00:30:39;6.80;99.90
36800;DHT22;22752;51.960;5.886;2024-01-25T00:33:04;6.70;99.90
36800;DHT22;22752;51.960;5.886;2024-01-25T00:35:31;6.60;99.90
36800;DHT22;22752;51.960;5.886;2024-01-25T00:37:57;6.60;99.90
36800;DHT22;22752;51.960;5.886;2024-01-25T00:40:22;6.50;99.90
36800;DHT22;22752;51.960;5.886;2024-01-25T00:42:49;6.50;99.90
36800;DHT22;22752;51.960;5.886;2024-01-25T00:45:19;6.40;99.90
36800;DHT22;22752;51.960;5.886;2024-01-25T00:47:45;6.40;99.90
36800;DHT22;22752;51.960;5.886;2024-01-25T00:50:11;6.40;99.90
36800;DHT22;22752;51.960;5.886;2024-01-25T00:52:38;6.30;99.90
36800;DHT22;22752;51.960;5.886;2024-01-25T00:55:04;6.30;99.90
36800;DHT22;22752;51.960;5.886;2024-01-25T00:57:30;6.30;99.90
36800;DHT22;22752;51.960;5.886;2024-01-25T00:59:56;6.20;99.90
36800;DHT22;22752;51.960;5.886;2024-01-25T01:02:22;6.10;99.90
36800;DHT22;22752;51.960;5.886;2024-01-25T01:04:48;6.10;99.90
36800;DHT22;22752;51.960;5.886;2024-01-25T01:07:14;6.10;99.90
36800;DHT22;22752;51.960;5.886;2024-01-25T01:09:40;6.10;99.90
36800;DHT22;22752;51.960;5.886;2024-01-25T01:12:06;6.10;99.90
36800;DHT22;22752;51.960;5.886;2024-01-25T01:14:32;6.00;99.90
36800;DHT22;22752;51.960;5.886;2024-01-25T01:16:58;6.00;99.90
36800;DHT22;22752;51.960;5.886;2024-01-25T01:19:23;6.00;99.90
36800;DHT22;22752;51.960;5.886;2024-01-25T01:21:49;6.00;99.90
36800;DHT22;22752;51.960;5.886;2024-01-25T01:24:15;5.90;99.90
36800;DHT22;22752;51.960;5.886;2024-01-25T01:26:40;5.80;99.90
36800;DHT22;22752;51.960;5.886;2024-01-25T01:29:09;5.80;99.90
36800;DHT22;22752;51.960;5.886;2024-01-25T01:31:34;5.90;99.90
36800;DHT22;22752;51.960;5.886;2024-01-25T01:34:00;5.80;99.90
36800;DHT22;22752;51.960;5.886;2024-01-25T01:36:26;5.80;99.90
36800;DHT22;22752;51.960;5.886;2024-01-25T01:38:52;5.70;99.90
36800;DHT22;22752;51.960;5.886;2024-01-25T01:41:20;5.70;99.90
36800;DHT22;22752;51.960;5.886;2024-01-25T01:43:45;5.70;99.90
36800;DHT22;22752;51.960;5.886;2024-01-25T01:46:20;5.60;99.90
36800;DHT22;22752;51.960;5.886;2024-01-25T01:48:46;5.60;99.90
36800;DHT22;22752;51.960;5.886;2024-01-25T01:51:12;5.60;99.90
36800;DHT22;22752;51.960;5.886;2024-01-25T01:53:38;5.60;99.90
36800;DHT22;22752;51.960;5.886;2024-01-25T01:56:04;5.50;99.90
36800;DHT22;22752;51.960;5.886;2024-01-25T01:58:31;5.50;99.90
36800;DHT22;22752;51.960;5.886;2024-01-25T02:00:59;5.40;99.90
36800;DHT22;22752;51.960;5.886;2024-01-25T02:03:25;5.40;99.90
36800;DHT22;22752;51.960;5.886;2024-01-25T02:05:51;5.40;99.90
36800;DHT22;22752;51.960;5.886;2024-01-25T02:08:16;5.40;99.90
36800;DHT22;22752;51.960;5.886;2024-01-25T02:10:42;5.30;99.90
36800;DHT22;22752;51.960;5.886;2024-01-25T02:13:08;5.30;99.90
36800;DHT22;22752;51.960;5.886;2024-01-25T02:15:34;5.30;99.90
36800;DHT22;22752;51.960;5.886;2024-01-25T02:17:59;5.20;99.90
36800;DHT22;22752;51.960;5.886;2024-01-25T02:20:25;5.20;99.90
36800;DHT22;22752;51.960;5.886;2024-01-25T02:22:51;5.20;99.90
36800;DHT22;22752;51.960;5.886;2024-01-25T02:25:17;5.10;99.90
36800;DHT22;22752;51.960;5.886;2024-01-25T02:27:42;5.10;99.90
36800;DHT22;22752;51.960;5.886;2024-01-25T02:30:08;5.00;99.90
36800;DHT22;22752;51.960;5.886;2024-01-25T02:32:34;5.00;99.90
36800;DHT22;22752;51.960;5.886;2024-01-25T02:35:00;4.90;99.90
36800;DHT22;22752;51.960;5.886;2024-01-25T02:37:26;4.90;99.90
36800;DHT22;22752;51.960;5.886;2024-01-25T02:39:52;4.80;99.90
36800;DHT22;22752;51.960;5.886;2024-01-25T02:42:18;4.80;99.90
36800;DHT22;22752;51.960;5.886;2024-01-25T02:44:44;4.80;99.90
36800;DHT22;22752;51.960;5.886;2024-01-25T02:47:10;4.80;99.90
36800;DHT22;22752;51.960;5.886;2024-01-25T02:49:35;4.70;99.90
36800;DHT22;22752;51.960;5.886;2024-01-25T02:52:01;4.70;99.90
36800;DHT22;22752;51.960;5.886;2024-01-25T02:54:27;4.70;99.90
36800;DHT22;22752;51.960;5.886;2024-01-25T02:56:53;4.70;99.90
36800;DHT22;22752;51.960;5.886;2024-01-25T02:59:18;4.60;99.90
36800;DHT22;22752;51.960;5.886;2024-01-25T03:01:44;4.60;99.90
36800;DHT22;22752;51.960;5.886;2024-01-25T03:04:10;4.60;99.90
36800;DHT22;22752;51.960;5.886;2024-01-25T03:06:36;4.60;99.90
36800;DHT22;22752;51.960;5.886;2024-01-25T03:09:02;4.50;99.90
36800;DHT22;22752;51.960;5.886;2024-01-25T03:11:30;4.50;99.90
36800;DHT22;22752;51.960;5.886;2024-01-25T03:13:56;4.50;99.90
36800;DHT22;22752;51.960;5.886;2024-01-25T03:16:22;4.40;99.90
36800;DHT22;22752;51.960;5.886;2024-01-25T03:18:48;4.40;99.90
36800;DHT22;22752;51.960;5.886;2024-01-25T03:21:13;4.40;99.90
36800;DHT22;22752;51.960;5.886;2024-01-25T03:23:39;4.50;99.90
36800;DHT22;22752;51.960;5.886;2024-01-25T03:26:04;4.50;99.90
36800;DHT22;22752;51.960;5.886;2024-01-25T03:28:30;4.50;99.90
36800;DHT22;22752;51.960;5.886;2024-01-25T03:30:56;4.50;99.90
36800;DHT22;22752;51.960;5.886;2024-01-25T03:33:22;4.50;99.90
36800;DHT22;22752;51.960;5.886;2024-01-25T03:35:47;4.50;99.90
36800;DHT22;22752;51.960;5.886;2024-01-25T03:38:13;4.50;99.90
36800;DHT22;22752;51.960;5.886;2024-01-25T03:40:39;4.40;99.90
36800;DHT22;22752;51.960;5.886;2024-01-25T03:43:05;4.40;99.90
36800;DHT22;22752;51.960;5.886;2024-01-25T03:45:31;4.40;99.90
36800;DHT22;22752;51.960;5.886;2024-01-25T03:47:58;4.40;99.90
36800;DHT22;22752;51.960;5.886;2024-01-25T03:50:24;4.40;99.90
36800;DHT22;22752;51.960;5.886;2024-01-25T03:52:49;4.40;99.90
36800;DHT22;22752;51.960;5.886;2024-01-25T03:55:15;4.40;99.90
36800;DHT22;22752;51.960;5.886;2024-01-25T03:57:41;4.30;99.90
36800;DHT22;22752;51.960;5.886;2024-01-25T04:00:08;4.30;99.90
36800;DHT22;22752;51.960;5.886;2024-01-25T04:02:34;4.20;99.90
36800;DHT22;22752;51.960;5.886;2024-01-25T04:05:00;4.20;99.90
36800;DHT22;22752;51.960;5.886;2024-01-25T04:07:25;4.20;99.90
36800;DHT22;22752;51.960;5.886;2024-01-25T04:09:51;4.10;99.90
36800;DHT22;22752;51.960;5.886;2024-01-25T04:12:16;4.10;99.90
36800;DHT22;22752;51.960;5.886;2024-01-25T04:14:42;4.10;99.90
36800;DHT22;22752;51.960;5.886;2024-01-25T04:17:08;4.10;99.90
36800;DHT22;22752;51.960;5.886;2024-01-25T04:19:35;4.10;99.90
36800;DHT22;22752;51.960;5.886;2024-01-25T04:22:00;4.00;99.90
36800;DHT22;22752;51.960;5.886;2024-01-25T04:24:26;4.00;99.90
36800;DHT22;22752;51.960;5.886;2024-01-25T04:26:52;4.00;99.90
36800;DHT22;22752;51.960;5.886;2024-01-25T04:29:17;4.00;99.90
36800;DHT22;22752;51.960;5.886;2024-01-25T04:31:44;4.00;99.90
36800;DHT22;22752;51.960;5.886;2024-01-25T04:34:10;3.90;99.90
36800;DHT22;22752;51.960;5.886;2024-01-25T04:36:36;3.90;99.90
36800;DHT22;22752;51.960;5.886;2024-01-25T04:39:02;3.80;99.90
36800;DHT22;22752;51.960;5.886;2024-01-25T04:41:27;3.80;99.90
36800;DHT22;22752;51.960;5.886;2024-01-25T04:43:53;3.70;99.90
36800;DHT22;22752;51.960;5.886;2024-01-25T04:46:18;3.60;99.90
36800;DHT22;22752;51.960;5.886;2024-01-25T04:48:44;3.60;99.90
36800;DHT22;22752;51.960;5.886;2024-01-25T04:51:18;3.60;99.90
36800;DHT22;22752;51.960;5.886;2024-01-25T04:53:45;3.50;99.90
36800;DHT22;22752;51.960;5.886;2024-01-25T04:56:11;3.60;99.90
36800;DHT22;22752;51.960;5.886;2024-01-25T04:58:36;3.50;99.90
36800;DHT22;22752;51.960;5.886;2024-01-25T05:01:02;3.50;99.90
36800;DHT22;22752;51.960;5.886;2024-01-25T05:03:28;3.50;99.90
36800;DHT22;22752;51.960;5.886;2024-01-25T05:05:53;3.50;99.90
36800;DHT22;22752;51.960;5.886;2024-01-25T05:08:19;3.50;99.90
36800;DHT22;22752;51.960;5.886;2024-01-25T05:10:44;3.50;99.90
36800;DHT22;22752;51.960;5.886;2024-01-25T05:13:11;3.50;99.90
36800;DHT22;22752;51.960;5.886;2024-01-25T05:15:37;3.40;99.90
36800;DHT22;22752;51.960;5.886;2024-01-25T05:18:02;3.40;99.90
36800;DHT22;22752;51.960;5.886;2024-01-25T05:20:28;3.40;99.90
36800;DHT22;22752;51.960;5.886;2024-01-25T05:22:58;3.40;99.90
36800;DHT22;22752;51.960;5.886;2024-01-25T05:25:24;3.30;99.90
36800;DHT22;22752;51.960;5.886;2024-01-25T05:27:51;3.30;99.90
36800;DHT22;22752;51.960;5.886;2024-01-25T05:30:18;3.30;99.90
36800;DHT22;22752;51.960;5.886;2024-01-25T05:32:43;3.20;99.90
36800;DHT22;22752;51.960;5.886;2024-01-25T05:35:09;3.20;99.90
36800;DHT22;22752;51.960;5.886;2024-01-25T05:37:35;3.20;99.90
36800;DHT22;22752;51.960;5.886;2024-01-25T05:40:01;3.10;99.90
36800;DHT22;22752;51.960;5.886;2024-01-25T05:42:26;3.10;99.90
36800;DHT22;22752;51.960;5.886;2024-01-25T05:44:52;3.10;99.90
36800;DHT22;22752;51.960;5.886;2024-01-25T05:47:18;3.10;99.90
36800;DHT22;22752;51.960;5.886;2024-01-25T05:49:43;3.10;99.90
36800;DHT22;22752;51.960;5.886;2024-01-25T05:52:09;3.00;99.90
36800;DHT22;22752;51.960;5.886;2024-01-25T05:54:34;3.10;99.90
36800;DHT22;22752;51.960;5.886;2024-01-25T05:57:00;3.00;99.90
36800;DHT22;22752;51.960;5.886;2024-01-25T05:59:26;3.00;99.90
36800;DHT22;22752;51.960;5.886;2024-01-25T06:01:51;2.90;99.90
36800;DHT22;22752;51.960;5.886;2024-01-25T06:04:17;2.90;99.90
36800;DHT22;22752;51.960;5.886;2024-01-25T06:06:42;2.80;99.90
36800;DHT22;22752;51.960;5.886;2024-01-25T06:09:08;2.80;99.90
36800;DHT22;22752;51.960;5.886;2024-01-25T06:11:34;2.80;99.90
36800;DHT22;22752;51.960;5.886;2024-01-25T06:14:01;2.80;99.90
36800;DHT22;22752;51.960;5.886;2024-01-25T06:16:27;2.80;99.90
36800;DHT22;22752;51.960;5.886;2024-01-25T06:18:52;2.70;99.90
36800;DHT22;22752;51.960;5.886;2024-01-25T06:21:18;2.60;99.90
36800;DHT22;22752;51.960;5.886;2024-01-25T06:23:43;2.70;99.90
36800;DHT22;22752;51.960;5.886;2024-01-25T06:26:09;2.60;99.90
36800;DHT22;22752;51.960;5.886;2024-01-25T06:28:35;2.60;99.90
36800;DHT22;22752;51.960;5.886;2024-01-25T06:31:03;2.60;99.90
36800;DHT22;22752;51.960;5.886;2024-01-25T06:33:29;2.60;99.90
36800;DHT22;22752;51.960;5.886;2024-01-25T06:35:56;2.60;99.90
36800;DHT22;22752;51.960;5.886;2024-01-25T06:38:23;2.50;99.90
36800;DHT22;22752;51.960;5.886;2024-01-25T06:40:48;2.50;99.90
36800;DHT22;22752;51.960;5.886;2024-01-25T06:43:14;2.50;99.90
36800;DHT22;22752;51.960;5.886;2024-01-25T06:45:39;2.50;99.90
36800;DHT22;22752;51.960;5.886;2024-01-25T06:48:07;2.50;99.90
36800;DHT22;22752;51.960;5.886;2024-01-25T06:50:34;2.50;99.90
36800;DHT22;22752;51.960;5.886;2024-01-25T06:53:00;2.50;99.90
36800;DHT22;22752;51.960;5.886;2024-01-25T06:55:25;2.50;99.90
36800;DHT22;22752;51.960;5.886;2024-01-25T06:57:51;2.50;99.90
36800;DHT22;22752;51.960;5.886;2024-01-25T07:00:17;2.50;99.90
36800;DHT22;22752;51.960;5.886;2024-01-25T07:02:44;2.60;99.90
36800;DHT22;22752;51.960;5.886;2024-01-25T07:05:10;2.50;99.90
36800;DHT22;22752;51.960;5.886;2024-01-25T07:07:35;2.50;99.90
36800;DHT22;22752;51.960;5.886;2024-01-25T07:10:04;2.50;99.90
36800;DHT22;22752;51.960;5.886;2024-01-25T07:12:30;2.50;99.90
36800;DHT22;22752;51.960;5.886;2024-01-25T07:14:56;2.50;99.90
36800;DHT22;22752;51.960;5.886;2024-01-25T07:17:22;2.60;99.90
36800;DHT22;22752;51.960;5.886;2024-01-25T07:19:47;2.60;99.90
36800;DHT22;22752;51.960;5.886;2024-01-25T07:22:13;2.70;99.90
36800;DHT22;22752;51.960;5.886;2024-01-25T07:24:40;2.60;99.90
36800;DHT22;22752;51.960;5.886;2024-01-25T07:27:06;2.70;99.90
36800;DHT22;22752;51.960;5.886;2024-01-25T07:29:32;2.80;99.90
36800;DHT22;22752;51.960;5.886;2024-01-25T07:31:57;2.80;99.90
36800;DHT22;22752;51.960;5.886;2024-01-25T07:34:23;2.70;99.90
36800;DHT22;22752;51.960;5.886;2024-01-25T07:36:48;2.70;99.90
36800;DHT22;22752;51.960;5.886;2024-01-25T07:39:14;2.70;99.90
36800;DHT22;22752;51.960;5.886;2024-01-25T07:41:40;2.70;99.90
36800;DHT22;22752;51.960;5.886;2024-01-25T07:44:05;2.70;99.90
36800;DHT22;22752;51.960;5.886;2024-01-25T07:46:31;2.80;99.90
36800;DHT22;22752;51.960;5.886;2024-01-25T07:48:57;2.90;99.90
36800;DHT22;22752;51.960;5.886;2024-01-25T07:51:23;3.00;99.90
36800;DHT22;22752;51.960;5.886;2024-01-25T07:53:48;3.10;99.90
36800;DHT22;22752;51.960;5.886;2024-01-25T07:56:14;3.00;99.90
36800;DHT22;22752;51.960;5.886;2024-01-25T07:58:40;3.10;99.90
36800;DHT22;22752;51.960;5.886;2024-01-25T08:01:06;3.10;99.90
36800;DHT22;22752;51.960;5.886;2024-01-25T08:03:32;3.10;99.90
36800;DHT22;22752;51.960;5.886;2024-01-25T08:05:59;3.20;99.90
36800;DHT22;22752;51.960;5.886;2024-01-25T08:08:25;3.20;99.90
36800;DHT22;22752;51.960;5.886;2024-01-25T08:10:50;3.30;99.90
36800;DHT22;22752;51.960;5.886;2024-01-25T08:13:16;3.30;99.90
36800;DHT22;22752;51.960;5.886;2024-01-25T08:15:41;3.30;99.90
36800;DHT22;22752;51.960;5.886;2024-01-25T08:18:07;3.30;99.90
36800;DHT22;22752;51.960;5.886;2024-01-25T08:20:33;3.30;99.90
36800;DHT22;22752;51.960;5.886;2024-01-25T08:23:00;3.30;99.90
36800;DHT22;22752;51.960;5.886;2024-01-25T08:25:26;3.30;99.90
36800;DHT22;22752;51.960;5.886;2024-01-25T08:27:52;3.40;99.90
36800;DHT22;22752;51.960;5.886;2024-01-25T08:30:17;3.50;99.90
36800;DHT22;22752;51.960;5.886;2024-01-25T08:32:43;3.60;99.90
36800;DHT22;22752;51.960;5.886;2024-01-25T08:35:09;3.70;99.90
36800;DHT22;22752;51.960;5.886;2024-01-25T08:37:34;3.80;99.90
36800;DHT22;22752;51.960;5.886;2024-01-25T08:40:03;3.90;99.90
36800;DHT22;22752;51.960;5.886;2024-01-25T08:42:31;4.00;99.90
36800;DHT22;22752;51.960;5.886;2024-01-25T08:44:57;4.10;99.90
36800;DHT22;22752;51.960;5.886;2024-01-25T08:47:23;4.10;99.90
36800;DHT22;22752;51.960;5.886;2024-01-25T08:49:49;4.20;99.90
36800;DHT22;22752;51.960;5.886;2024-01-25T08:52:14;4.20;99.90
36800;DHT22;22752;51.960;5.886;2024-01-25T08:54:40;4.30;99.90
36800;DHT22;22752;51.960;5.886;2024-01-25T08:57:07;4.30;99.90
36800;DHT22;22752;51.960;5.886;2024-01-25T08:59:34;4.40;99.90
36800;DHT22;22752;51.960;5.886;2024-01-25T09:02:06;4.50;99.90
36800;DHT22;22752;51.960;5.886;2024-01-25T09:04:32;4.60;99.90
36800;DHT22;22752;51.960;5.886;2024-01-25T09:06:58;4.70;99.90
36800;DHT22;22752;51.960;5.886;2024-01-25T09:09:24;4.80;99.90
36800;DHT22;22752;51.960;5.886;2024-01-25T09:11:50;4.90;99.90
36800;DHT22;22752;51.960;5.886;2024-01-25T09:14:15;5.00;99.90
36800;DHT22;22752;51.960;5.886;2024-01-25T09:16:41;5.10;99.90
36800;DHT22;22752;51.960;5.886;2024-01-25T09:19:08;5.20;99.90
36800;DHT22;22752;51.960;5.886;2024-01-25T09:21:33;5.20;99.90
36800;DHT22;22752;51.960;5.886;2024-01-25T09:23:59;5.30;99.90
36800;DHT22;22752;51.960;5.886;2024-01-25T09:26:25;5.40;99.90
36800;DHT22;22752;51.960;5.886;2024-01-25T09:28:50;5.50;99.90
36800;DHT22;22752;51.960;5.886;2024-01-25T09:31:16;5.50;99.90
36800;DHT22;22752;51.960;5.886;2024-01-25T09:33:42;5.60;99.90
36800;DHT22;22752;51.960;5.886;2024-01-25T09:36:07;5.70;99.90
36800;DHT22;22752;51.960;5.886;2024-01-25T09:38:33;5.70;99.90
36800;DHT22;22752;51.960;5.886;2024-01-25T09:40:59;5.80;99.90
36800;DHT22;22752;51.960;5.886;2024-01-25T09:43:27;5.80;99.90
36800;DHT22;22752;51.960;5.886;2024-01-25T09:45:55;5.90;99.90
36800;DHT22;22752;51.960;5.886;2024-01-25T09:48:21;6.00;99.90
36800;DHT22;22752;51.960;5.886;2024-01-25T09:50:47;6.00;99.90
36800;DHT22;22752;51.960;5.886;2024-01-25T09:53:23;6.10;99.90
36800;DHT22;22752;51.960;5.886;2024-01-25T09:56:03;6.20;99.90
36800;DHT22;22752;51.960;5.886;2024-01-25T09:58:44;6.30;99.90
36800;DHT22;22752;51.960;5.886;2024-01-25T10:01:13;6.40;99.90
36800;DHT22;22752;51.960;5.886;2024-01-25T10:03:44;6.40;99.90
36800;DHT22;22752;51.960;5.886;2024-01-25T10:06:14;6.60;99.90
36800;DHT22;22752;51.960;5.886;2024-01-25T10:08:40;6.70;99.90
36800;DHT22;22752;51.960;5.886;2024-01-25T10:11:06;6.80;99.90
36800;DHT22;22752;51.960;5.886;2024-01-25T10:13:47;6.80;99.90
36800;DHT22;22752;51.960;5.886;2024-01-25T10:16:13;6.90;99.90
36800;DHT22;22752;51.960;5.886;2024-01-25T10:18:43;6.90;99.90
36800;DHT22;22752;51.960;5.886;2024-01-25T10:21:13;7.00;99.90
36800;DHT22;22752;51.960;5.886;2024-01-25T10:23:39;7.00;99.90
36800;DHT22;22752;51.960;5.886;2024-01-25T10:26:07;7.10;99.90
36800;DHT22;22752;51.960;5.886;2024-01-25T10:28:33;7.10;99.90
36800;DHT22;22752;51.960;5.886;2024-01-25T10:31:02;7.10;99.90
36800;DHT22;22752;51.960;5.886;2024-01-25T10:33:30;7.10;99.90
36800;DHT22;22752;51.960;5.886;2024-01-25T10:35:56;7.10;99.90
36800;DHT22;22752;51.960;5.886;2024-01-25T10:38:33;7.20;99.90
36800;DHT22;22752;51.960;5.886;2024-01-25T10:41:01;7.20;99.90
36800;DHT22;22752;51.960;5.886;2024-01-25T10:43:28;7.20;99.90
36800;DHT22;22752;51.960;5.886;2024-01-25T10:45:54;7.30;99.90
36800;DHT22;22752;51.960;5.886;2024-01-25T10:48:23;7.30;99.90
36800;DHT22;22752;51.960;5.886;2024-01-25T10:50:48;7.40;99.90
36800;DHT22;22752;51.960;5.886;2024-01-25T10:53:15;7.50;99.90
36800;DHT22;22752;51.960;5.886;2024-01-25T10:55:42;7.50;99.90
36800;DHT22;22752;51.960;5.886;2024-01-25T10:58:08;7.60;99.90
36800;DHT22;22752;51.960;5.886;2024-01-25T11:00:35;7.60;99.90
36800;DHT22;22752;51.960;5.886;2024-01-25T11:03:01;7.70;99.90
36800;DHT22;22752;51.960;5.886;2024-01-25T11:05:27;7.80;99.90
36800;DHT22;22752;51.960;5.886;2024-01-25T11:07:53;7.80;99.90
36800;DHT22;22752;51.960;5.886;2024-01-25T11:10:22;7.90;99.90
36800;DHT22;22752;51.960;5.886;2024-01-25T11:15:22;7.90;99.90
36800;DHT22;22752;51.960;5.886;2024-01-25T11:17:53;8.10;99.90
36800;DHT22;22752;51.960;5.886;2024-01-25T11:20:29;8.10;99.90
36800;DHT22;22752;51.960;5.886;2024-01-25T11:23:05;8.10;99.90
36800;DHT22;22752;51.960;5.886;2024-01-25T11:25:33;8.20;99.90
36800;DHT22;22752;51.960;5.886;2024-01-25T11:28:02;8.20;99.90
36800;DHT22;22752;51.960;5.886;2024-01-25T11:30:29;8.20;99.90
36800;DHT22;22752;51.960;5.886;2024-01-25T11:32:55;8.20;99.90
36800;DHT22;22752;51.960;5.886;2024-01-25T11:35:21;8.30;99.90
36800;DHT22;22752;51.960;5.886;2024-01-25T11:37:48;8.20;99.90
36800;DHT22;22752;51.960;5.886;2024-01-25T11:40:15;8.30;99.90
36800;DHT22;22752;51.960;5.886;2024-01-25T11:42:46;8.40;99.90
36800;DHT22;22752;51.960;5.886;2024-01-25T11:45:13;8.40;99.90
36800;DHT22;22752;51.960;5.886;2024-01-25T11:47:40;8.50;99.90
36800;DHT22;22752;51.960;5.886;2024-01-25T11:50:07;8.50;99.90
36800;DHT22;22752;51.960;5.886;2024-01-25T11:52:34;8.60;99.90
36800;DHT22;22752;51.960;5.886;2024-01-25T11:55:08;8.60;99.90
36800;DHT22;22752;51.960;5.886;2024-01-25T11:57:38;8.70;99.90
36800;DHT22;22752;51.960;5.886;2024-01-25T12:00:05;8.70;99.90
36800;DHT22;22752;51.960;5.886;2024-01-25T12:02:32;8.70;99.90
36800;DHT22;22752;51.960;5.886;2024-01-25T12:04:58;8.60;99.90
36800;DHT22;22752;51.960;5.886;2024-01-25T12:07:23;8.70;99.90
36800;DHT22;22752;51.960;5.886;2024-01-25T12:10:09;8.70;99.90
36800;DHT22;22752;51.960;5.886;2024-01-25T12:12:36;8.80;99.90
36800;DHT22;22752;51.960;5.886;2024-01-25T12:15:05;8.80;99.90
36800;DHT22;22752;51.960;5.886;2024-01-25T12:17:31;8.90;99.90
36800;DHT22;22752;51.960;5.886;2024-01-25T12:19:57;8.90;99.90
36800;DHT22;22752;51.960;5.886;2024-01-25T12:22:24;8.90;99.90
36800;DHT22;22752;51.960;5.886;2024-01-25T12:24:55;8.90;99.90
36800;DHT22;22752;51.960;5.886;2024-01-25T12:27:22;9.00;99.90
36800;DHT22;22752;51.960;5.886;2024-01-25T12:29:50;8.90;99.90
36800;DHT22;22752;51.960;5.886;2024-01-25T12:32:16;8.90;99.90
36800;DHT22;22752;51.960;5.886;2024-01-25T12:34:52;8.90;99.90
36800;DHT22;22752;51.960;5.886;2024-01-25T12:37:17;8.80;99.90
36800;DHT22;22752;51.960;5.886;2024-01-25T12:39:43;8.70;99.90
36800;DHT22;22752;51.960;5.886;2024-01-25T12:42:09;8.70;99.90
36800;DHT22;22752;51.960;5.886;2024-01-25T12:44:35;8.60;99.90
36800;DHT22;22752;51.960;5.886;2024-01-25T12:47:00;8.50;99.90
36800;DHT22;22752;51.960;5.886;2024-01-25T12:49:28;8.50;99.90
36800;DHT22;22752;51.960;5.886;2024-01-25T12:51:54;8.60;99.90
36800;DHT22;22752;51.960;5.886;2024-01-25T12:54:20;8.70;99.90
36800;DHT22;22752;51.960;5.886;2024-01-25T12:56:46;8.80;99.90
36800;DHT22;22752;51.960;5.886;2024-01-25T12:59:12;9.00;99.90
36800;DHT22;22752;51.960;5.886;2024-01-25T13:01:38;9.00;99.90
36800;DHT22;22752;51.960;5.886;2024-01-25T13:04:03;9.10;99.90
36800;DHT22;22752;51.960;5.886;2024-01-25T13:06:29;9.20;99.90
36800;DHT22;22752;51.960;5.886;2024-01-25T13:08:55;9.20;99.90
36800;DHT22;22752;51.960;5.886;2024-01-25T13:11:20;9.30;99.90
36800;DHT22;22752;51.960;5.886;2024-01-25T13:13:46;9.30;99.90
36800;DHT22;22752;51.960;5.886;2024-01-25T13:16:11;9.30;99.90
36800;DHT22;22752;51.960;5.886;2024-01-25T13:18:37;9.40;99.90
36800;DHT22;22752;51.960;5.886;2024-01-25T13:21:03;9.40;99.90
36800;DHT22;22752;51.960;5.886;2024-01-25T13:23:28;9.40;99.90
36800;DHT22;22752;51.960;5.886;2024-01-25T13:25:54;9.40;99.90
36800;DHT22;22752;51.960;5.886;2024-01-25T13:28:20;9.40;99.90
36800;DHT22;22752;51.960;5.886;2024-01-25T13:30:45;9.40;99.90
36800;DHT22;22752;51.960;5.886;2024-01-25T13:33:11;9.40;99.90
36800;DHT22;22752;51.960;5.886;2024-01-25T13:35:36;9.30;99.90
36800;DHT22;22752;51.960;5.886;2024-01-25T13:38:02;9.30;99.90
36800;DHT22;22752;51.960;5.886;2024-01-25T13:40:28;9.30;99.90
36800;DHT22;22752;51.960;5.886;2024-01-25T13:42:54;9.30;99.90
36800;DHT22;22752;51.960;5.886;2024-01-25T13:45:22;9.30;99.90
36800;DHT22;22752;51.960;5.886;2024-01-25T13:47:48;9.30;99.90
36800;DHT22;22752;51.960;5.886;2024-01-25T13:50:13;9.20;99.90
36800;DHT22;22752;51.960;5.886;2024-01-25T13:52:39;9.20;99.90
36800;DHT22;22752;51.960;5.886;2024-01-25T13:55:05;9.20;99.90
36800;DHT22;22752;51.960;5.886;2024-01-25T13:57:31;9.30;99.90
36800;DHT22;22752;51.960;5.886;2024-01-25T13:59:56;9.30;99.90
36800;DHT22;22752;51.960;5.886;2024-01-25T14:02:22;9.30;99.90
36800;DHT22;22752;51.960;5.886;2024-01-25T14:04:47;9.30;99.90
36800;DHT22;22752;51.960;5.886;2024-01-25T14:07:15;9.40;99.90
36800;DHT22;22752;51.960;5.886;2024-01-25T14:09:42;9.30;99.90
36800;DHT22;22752;51.960;5.886;2024-01-25T14:12:08;9.30;99.90
36800;DHT22;22752;51.960;5.886;2024-01-25T14:14:33;9.20;99.90
36800;DHT22;22752;51.960;5.886;2024-01-25T14:16:59;9.20;99.90
36800;DHT22;22752;51.960;5.886;2024-01-25T14:19:25;9.10;99.90
36800;DHT22;22752;51.960;5.886;2024-01-25T14:21:50;9.10;99.90
36800;DHT22;22752;51.960;5.886;2024-01-25T14:24:16;9.00;99.90
36800;DHT22;22752;51.960;5.886;2024-01-25T14:26:43;9.00;99.90
36800;DHT22;22752;51.960;5.886;2024-01-25T14:29:09;9.00;99.90
36800;DHT22;22752;51.960;5.886;2024-01-25T14:31:35;9.00;99.90
36800;DHT22;22752;51.960;5.886;2024-01-25T14:34:01;9.00;99.90
36800;DHT22;22752;51.960;5.886;2024-01-25T14:36:27;8.90;99.90
36800;DHT22;22752;51.960;5.886;2024-01-25T14:38:52;8.90;99.90
36800;DHT22;22752;51.960;5.886;2024-01-25T14:41:18;8.90;99.90
36800;DHT22;22752;51.960;5.886;2024-01-25T14:43:44;8.90;99.90
36800;DHT22;22752;51.960;5.886;2024-01-25T14:46:10;8.90;99.90
36800;DHT22;22752;51.960;5.886;2024-01-25T14:48:36;8.90;99.90
36800;DHT22;22752;51.960;5.886;2024-01-25T14:51:01;8.90;99.90
36800;DHT22;22752;51.960;5.886;2024-01-25T14:53:27;8.90;99.90
36800;DHT22;22752;51.960;5.886;2024-01-25T14:55:53;8.90;99.90
36800;DHT22;22752;51.960;5.886;2024-01-25T14:58:19;8.80;99.90
36800;DHT22;22752;51.960;5.886;2024-01-25T15:00:52;8.80;99.90
36800;DHT22;22752;51.960;5.886;2024-01-25T15:03:18;8.80;99.90
36800;DHT22;22752;51.960;5.886;2024-01-25T15:05:44;8.80;99.90
36800;DHT22;22752;51.960;5.886;2024-01-25T15:08:10;8.80;99.90
36800;DHT22;22752;51.960;5.886;2024-01-25T15:10:36;8.80;99.90
36800;DHT22;22752;51.960;5.886;2024-01-25T15:13:02;8.80;99.90
36800;DHT22;22752;51.960;5.886;2024-01-25T15:15:28;8.80;99.90
36800;DHT22;22752;51.960;5.886;2024-01-25T15:17:54;8.80;99.90
36800;DHT22;22752;51.960;5.886;2024-01-25T15:20:21;8.80;99.90
36800;DHT22;22752;51.960;5.886;2024-01-25T15:22:46;8.80;99.90
36800;DHT22;22752;51.960;5.886;2024-01-25T15:25:12;8.80;99.90
36800;DHT22;22752;51.960;5.886;2024-01-25T15:27:38;8.80;99.90
36800;DHT22;22752;51.960;5.886;2024-01-25T15:30:04;8.80;99.90
36800;DHT22;22752;51.960;5.886;2024-01-25T15:32:31;8.70;99.90
36800;DHT22;22752;51.960;5.886;2024-01-25T15:34:57;8.70;99.90
36800;DHT22;22752;51.960;5.886;2024-01-25T15:37:22;8.70;99.90
36800;DHT22;22752;51.960;5.886;2024-01-25T15:39:48;8.70;99.90
36800;DHT22;22752;51.960;5.886;2024-01-25T15:42:14;8.70;99.90